Time;durP1;ratioP1;P1;durP2;ratioP2;P2;SDS_P1;SDS_P2;PMS_P1;PMS_P2;Temp;Humidity;BMP_temperature;BMP_pressure;BME280_temperature;BME280_humidity;BME280_pressure;Samples;Min_cycle;Max_cycle;Signal;HPM_P1;HPM_P2
2023/05/17 00:02:10;;;;;;;10.77;5.68;;;;;;;;;;5095923;28;20114;-63
2023/05/17 00:04:37;;;;;;;9.63;5.50;;;;;;;;;;5095583;28;20493;-64
2023/05/17 00:07:05;;;;;;;12.23;5.82;;;;;;;;;;5096141;28;20102;-63
2023/05/17 00:09:32;;;;;;;11.80;6.18;;;;;;;;;;5095824;28;20051;-63
2023/05/17 00:12:00;;;;;;;12.43;6.03;;;;;;;;;;5095980;28;20074;-63
2023/05/17 00:14:27;;;;;;;13.13;6.60;;;;;;;;;;5095988;28;20127;-63
2023/05/17 00:16:55;;;;;;;11.48;5.95;;;;;;;;;;5095681;28;20170;-63
2023/05/17 00:19:22;;;;;;;16.70;6.55;;;;;;;;;;5095790;28;20436;-63
2023/05/17 00:21:50;;;;;;;10.57;5.70;;;;;;;;;;5095617;28;20541;-63
2023/05/17 00:24:17;;;;;;;11.50;6.60;;;;;;;;;;5095532;28;20085;-63
2023/05/17 00:26:45;;;;;;;12.93;6.90;;;;;;;;;;5077358;28;20040;-63
2023/05/17 00:29:12;;;;;;;16.08;7.32;;;;;;;;;;5095315;28;20052;-63
2023/05/17 00:31:42;;;;;;;11.30;7.78;;;;;;;;;;5077199;28;20047;-63
2023/05/17 00:34:09;;;;;;;13.90;8.18;;;;;;;;;;5077040;28;20493;-63
2023/05/17 00:36:37;;;;;;;16.38;8.73;;;;;;;;;;5076742;28;20040;-63
2023/05/17 00:39:04;;;;;;;16.52;8.85;;;;;;;;;;5077074;28;20048;-63
2023/05/17 00:41:32;;;;;;;11.13;8.23;;;;;;;;;;5076920;28;20051;-63
2023/05/17 00:43:59;;;;;;;14.65;9.35;;;;;;;;;;5076908;28;20146;-64
2023/05/17 00:46:27;;;;;;;16.63;9.25;;;;;;;;;;5094985;28;20131;-64
2023/05/17 00:48:54;;;;;;;13.05;9.02;;;;;;;;;;5095041;28;20244;-64
2023/05/17 00:51:22;;;;;;;16.83;9.68;;;;;;;;;;5095024;28;20037;-64
2023/05/17 00:53:49;;;;;;;17.85;9.77;;;;;;;;;;5076706;28;20097;-65
2023/05/17 00:56:17;;;;;;;16.17;9.55;;;;;;;;;;5077038;28;20044;-65
2023/05/17 00:58:44;;;;;;;17.33;9.90;;;;;;;;;;5076717;28;20052;-65
2023/05/17 01:01:12;;;;;;;16.30;9.65;;;;;;;;;;5094730;28;20039;-65
2023/05/17 01:03:40;;;;;;;16.60;10.13;;;;;;;;;;5076695;28;20462;-65
2023/05/17 01:06:07;;;;;;;18.23;9.68;;;;;;;;;;5076388;28;20066;-65
2023/05/17 01:08:35;;;;;;;15.10;10.13;;;;;;;;;;5094718;28;20048;-65
2023/05/17 01:11:05;;;;;;;14.40;9.85;;;;;;;;;;5076364;28;20047;-65
2023/05/17 01:13:52;;;;;;;16.77;9.73;;;;;;;;;;5076786;28;20071;-65
2023/05/17 01:16:25;;;;;;;15.93;9.90;;;;;;;;;;5076461;28;20040;-65
2023/05/17 01:18:56;;;;;;;16.75;9.57;;;;;;;;;;5076188;28;20543;-65
2023/05/17 01:21:39;;;;;;;15.82;10.13;;;;;;;;;;5094467;28;20039;-64
2023/05/17 01:24:20;;;;;;;14.68;10.07;;;;;;;;;;5076284;28;20505;-64
2023/05/17 01:26:49;;;;;;;17.85;10.48;;;;;;;;;;5094553;28;20487;-64
2023/05/17 01:29:17;;;;;;;16.70;10.30;;;;;;;;;;5075996;28;20089;-64
2023/05/17 01:31:45;;;;;;;15.05;11.13;;;;;;;;;;5076072;28;20047;-65
2023/05/17 01:34:12;;;;;;;16.10;10.63;;;;;;;;;;5075866;28;20143;-65
2023/05/17 01:36:41;;;;;;;17.20;11.27;;;;;;;;;;5075845;28;20044;-65
2023/05/17 01:39:09;;;;;;;23.15;11.80;;;;;;;;;;5075898;28;20066;-64
2023/05/17 01:41:40;;;;;;;19.25;12.60;;;;;;;;;;5094195;28;20043;-64
2023/05/17 01:44:07;;;;;;;16.65;12.00;;;;;;;;;;5075884;28;20455;-64
2023/05/17 01:46:42;;;;;;;18.45;12.73;;;;;;;;;;5075273;28;20039;-64
2023/05/17 01:49:29;;;;;;;18.52;11.43;;;;;;;;;;5075713;28;20123;-64
2023/05/17 01:52:07;;;;;;;21.35;12.10;;;;;;;;;;5093785;28;20044;-65
2023/05/17 01:54:37;;;;;;;18.20;11.40;;;;;;;;;;5059197;28;20047;-64
2023/05/17 01:57:06;;;;;;;19.63;12.40;;;;;;;;;;5075566;28;20118;-64
2023/05/17 01:59:35;;;;;;;17.15;11.63;;;;;;;;;;5075539;28;20134;-64
2023/05/17 02:02:06;;;;;;;19.90;12.25;;;;;;;;;;5093656;28;20394;-64
2023/05/17 02:04:35;;;;;;;19.08;11.75;;;;;;;;;;5059026;28;20131;-64
2023/05/17 02:07:03;;;;;;;17.60;11.20;;;;;;;;;;5093545;28;20062;-64
2023/05/17 02:09:30;;;;;;;19.80;12.45;;;;;;;;;;5075436;28;20040;-64
2023/05/17 02:11:58;;;;;;;19.60;12.68;;;;;;;;;;5075478;28;20113;-64
2023/05/17 02:14:26;;;;;;;22.65;11.68;;;;;;;;;;5075266;28;20105;-64
2023/05/17 02:16:53;;;;;;;18.67;11.55;;;;;;;;;;5075249;28;20040;-64
2023/05/17 02:19:21;;;;;;;16.92;11.93;;;;;;;;;;5075158;28;20074;-65
2023/05/17 02:21:48;;;;;;;17.50;11.80;;;;;;;;;;5075092;28;20071;-64
2023/05/17 02:24:16;;;;;;;17.83;11.73;;;;;;;;;;5075122;28;20054;-65
2023/05/17 02:26:45;;;;;;;19.60;12.43;;;;;;;;;;5093107;28;20054;-64
2023/05/17 02:29:12;;;;;;;18.90;12.82;;;;;;;;;;5093356;28;20047;-64
2023/05/17 02:31:40;;;;;;;21.70;13.77;;;;;;;;;;5074952;28;20142;-64
2023/05/17 02:34:07;;;;;;;16.95;13.05;;;;;;;;;;5074752;28;20482;-64
2023/05/17 02:36:35;;;;;;;17.65;12.95;;;;;;;;;;5074850;28;20052;-64
2023/05/17 02:39:02;;;;;;;18.45;13.02;;;;;;;;;;5074732;28;20405;-64
2023/05/17 02:41:31;;;;;;;21.05;12.27;;;;;;;;;;5093010;28;20035;-64
2023/05/17 02:43:58;;;;;;;22.23;13.35;;;;;;;;;;5074687;28;20067;-64
2023/05/17 02:46:26;;;;;;;19.77;12.93;;;;;;;;;;5074759;28;20044;-64
2023/05/17 02:48:53;;;;;;;21.23;12.07;;;;;;;;;;5074694;28;20035;-64
2023/05/17 02:51:21;;;;;;;17.35;11.90;;;;;;;;;;5074930;28;20184;-64
2023/05/17 02:53:48;;;;;;;16.73;12.00;;;;;;;;;;5074530;28;20040;-64
2023/05/17 02:56:16;;;;;;;17.35;11.93;;;;;;;;;;5074578;28;20044;-65
2023/05/17 02:58:44;;;;;;;17.75;12.00;;;;;;;;;;5073456;28;20131;-64
2023/05/17 03:01:12;;;;;;;17.63;11.43;;;;;;;;;;5074558;28;20040;-64
2023/05/17 03:03:39;;;;;;;16.52;11.02;;;;;;;;;;5074129;28;20097;-65
2023/05/17 03:06:07;;;;;;;15.95;11.80;;;;;;;;;;5073282;28;20044;-65
2023/05/17 03:08:35;;;;;;;16.35;10.95;;;;;;;;;;5054503;28;20052;-64
2023/05/17 03:11:03;;;;;;;20.45;11.43;;;;;;;;;;5054446;28;20049;-64
2023/05/17 03:13:31;;;;;;;15.13;11.20;;;;;;;;;;5054280;28;20094;-64
2023/05/17 03:15:59;;;;;;;17.67;12.52;;;;;;;;;;5054323;28;20452;-64
2023/05/17 03:18:27;;;;;;;20.90;11.95;;;;;;;;;;5072502;28;20044;-64
2023/05/17 03:20:55;;;;;;;20.67;11.95;;;;;;;;;;5054232;28;20052;-64
2023/05/17 03:23:22;;;;;;;17.45;11.85;;;;;;;;;;5054464;28;20410;-64
2023/05/17 03:25:57;;;;;;;17.30;11.43;;;;;;;;;;5054214;28;20114;-64
2023/05/17 03:28:26;;;;;;;15.73;11.40;;;;;;;;;;5054189;28;20068;-65
2023/05/17 03:30:55;;;;;;;14.45;10.45;;;;;;;;;;5054182;28;20395;-64
2023/05/17 03:33:23;;;;;;;15.90;10.80;;;;;;;;;;5053909;28;20041;-64
2023/05/17 03:35:51;;;;;;;15.77;11.60;;;;;;;;;;5054070;28;20048;-64
2023/05/17 03:38:19;;;;;;;16.40;11.00;;;;;;;;;;5054112;28;20490;-64
2023/05/17 03:40:46;;;;;;;17.17;10.13;;;;;;;;;;5054156;28;20036;-64
2023/05/17 03:43:14;;;;;;;17.52;11.75;;;;;;;;;;5054131;28;20036;-65
2023/05/17 03:45:41;;;;;;;18.23;11.85;;;;;;;;;;5054211;28;20059;-64
2023/05/17 03:48:09;;;;;;;17.33;11.25;;;;;;;;;;5054090;28;20075;-64
2023/05/17 03:50:37;;;;;;;16.88;10.77;;;;;;;;;;5053983;28;20055;-64
2023/05/17 03:53:05;;;;;;;17.20;11.13;;;;;;;;;;5053966;28;20072;-64
2023/05/17 03:55:33;;;;;;;18.92;11.82;;;;;;;;;;5053721;28;20182;-65
2023/05/17 03:58:00;;;;;;;16.83;11.45;;;;;;;;;;5054004;28;20045;-61
2023/05/17 04:00:29;;;;;;;15.05;10.60;;;;;;;;;;5053849;28;20076;-63
2023/05/17 04:03:01;;;;;;;14.70;9.88;;;;;;;;;;5053863;28;20533;-63
2023/05/17 04:05:29;;;;;;;17.23;10.55;;;;;;;;;;5037259;28;20536;-63
2023/05/17 04:07:57;;;;;;;17.80;10.68;;;;;;;;;;5053909;28;20444;-63
2023/05/17 04:10:25;;;;;;;16.83;10.48;;;;;;;;;;5055080;28;20041;-63
2023/05/17 04:12:52;;;;;;;14.23;9.45;;;;;;;;;;5075276;28;20086;-63
2023/05/17 04:15:20;;;;;;;14.55;9.93;;;;;;;;;;5040859;28;20064;-63
2023/05/17 04:17:48;;;;;;;15.77;11.25;;;;;;;;;;5057234;28;20040;-63
2023/05/17 04:20:16;;;;;;;14.75;10.63;;;;;;;;;;5057122;28;20052;-62
2023/05/17 04:22:44;;;;;;;15.57;10.38;;;;;;;;;;5041324;28;20066;-62
2023/05/17 04:25:11;;;;;;;15.90;10.48;;;;;;;;;;5057193;28;20052;-63
2023/05/17 04:27:39;;;;;;;13.07;9.70;;;;;;;;;;5057350;28;20044;-63
2023/05/17 04:30:08;;;;;;;12.30;10.30;;;;;;;;;;5056927;28;20131;-63
2023/05/17 04:32:36;;;;;;;17.38;10.50;;;;;;;;;;5040674;28;20546;-64
2023/05/17 04:35:04;;;;;;;14.20;9.90;;;;;;;;;;5056549;28;20049;-63
2023/05/17 04:37:32;;;;;;;17.83;10.55;;;;;;;;;;5054797;28;20052;-63
2023/05/17 04:40:09;;;;;;;14.05;9.98;;;;;;;;;;5055867;28;20051;-63
2023/05/17 04:42:37;;;;;;;19.88;10.85;;;;;;;;;;5056370;28;20043;-63
2023/05/17 04:45:05;;;;;;;19.50;9.48;;;;;;;;;;5056423;28;20090;-63
2023/05/17 04:47:33;;;;;;;13.13;9.50;;;;;;;;;;5056507;28;20094;-63
2023/05/17 04:50:00;;;;;;;15.07;9.60;;;;;;;;;;5056419;28;20037;-63
2023/05/17 04:52:28;;;;;;;12.35;9.77;;;;;;;;;;5074763;28;20064;-63
2023/05/17 04:54:55;;;;;;;15.73;9.80;;;;;;;;;;5056785;28;20045;-63
2023/05/17 04:57:23;;;;;;;13.73;9.43;;;;;;;;;;5056722;28;20041;-63
2023/05/17 04:59:57;;;;;;;14.85;10.07;;;;;;;;;;5056556;28;20536;-63
2023/05/17 05:02:25;;;;;;;15.25;9.88;;;;;;;;;;5056464;28;20423;-62
2023/05/17 05:04:53;;;;;;;14.85;9.85;;;;;;;;;;5084139;28;20033;-63
2023/05/17 05:07:21;;;;;;;17.13;9.75;;;;;;;;;;5059243;28;20044;-62
2023/05/17 05:09:48;;;;;;;14.80;9.35;;;;;;;;;;5059103;28;20421;-63
2023/05/17 05:12:17;;;;;;;15.32;9.15;;;;;;;;;;5056333;28;20049;-62
2023/05/17 05:14:46;;;;;;;18.48;9.68;;;;;;;;;;5056114;28;20040;-62
2023/05/17 05:17:14;;;;;;;12.38;8.85;;;;;;;;;;5056180;28;20060;-62
2023/05/17 05:19:41;;;;;;;14.52;9.73;;;;;;;;;;5056191;28;20045;-62
2023/05/17 05:22:10;;;;;;;14.40;9.10;;;;;;;;;;5073006;28;20114;-63
2023/05/17 05:24:39;;;;;;;13.18;8.88;;;;;;;;;;5055892;28;20063;-62
2023/05/17 05:27:06;;;;;;;13.40;9.00;;;;;;;;;;5039669;28;20147;-62
2023/05/17 05:29:35;;;;;;;22.83;8.93;;;;;;;;;;5055902;28;20144;-63
2023/05/17 05:32:03;;;;;;;121.15;20.95;;;;;;;;;;5055993;28;20041;-63
2023/05/17 05:34:35;;;;;;;20.77;9.75;;;;;;;;;;5055551;28;20045;-63
2023/05/17 05:37:03;;;;;;;88.38;16.55;;;;;;;;;;5055736;28;20052;-63
2023/05/17 05:39:31;;;;;;;27.20;10.02;;;;;;;;;;5055602;28;20062;-63
2023/05/17 05:42:00;;;;;;;41.95;12.02;;;;;;;;;;5055738;28;20059;-63
2023/05/17 05:44:29;;;;;;;108.13;17.83;;;;;;;;;;5055622;28;20049;-63
2023/05/17 05:46:57;;;;;;;66.47;14.43;;;;;;;;;;5055582;28;20055;-63
2023/05/17 05:49:25;;;;;;;31.30;10.30;;;;;;;;;;5055396;28;20047;-63
2023/05/17 05:51:54;;;;;;;26.95;8.75;;;;;;;;;;5055581;28;20041;-63
2023/05/17 05:54:22;;;;;;;19.73;8.15;;;;;;;;;;5055489;28;20036;-63
2023/05/17 05:56:52;;;;;;;44.40;12.43;;;;;;;;;;5055391;28;20075;-63
2023/05/17 05:59:20;;;;;;;85.57;14.85;;;;;;;;;;5088864;28;20465;-63
2023/05/17 06:01:47;;;;;;;29.08;9.63;;;;;;;;;;5055341;28;20041;-64
2023/05/17 06:04:15;;;;;;;27.48;9.43;;;;;;;;;;5072956;28;20049;-63
2023/05/17 06:06:42;;;;;;;22.30;9.27;;;;;;;;;;5073100;28;20437;-63
2023/05/17 06:09:11;;;;;;;39.03;10.43;;;;;;;;;;5055447;28;20525;-63
2023/05/17 06:11:38;;;;;;;41.40;10.80;;;;;;;;;;5073021;28;20592;-63
2023/05/17 06:14:06;;;;;;;25.45;9.70;;;;;;;;;;5066713;28;20455;-63
2023/05/17 06:16:34;;;;;;;22.48;8.65;;;;;;;;;;5093104;28;20048;-63
2023/05/17 06:19:02;;;;;;;20.13;10.10;;;;;;;;;;5093007;28;20040;-63
2023/05/17 06:21:30;;;;;;;24.65;10.52;;;;;;;;;;5074996;28;20040;-63
2023/05/17 06:23:58;;;;;;;23.58;9.05;;;;;;;;;;5093588;28;20044;-63
2023/05/17 06:26:26;;;;;;;22.27;9.30;;;;;;;;;;5093207;28;20118;-64
2023/05/17 06:28:53;;;;;;;18.10;8.02;;;;;;;;;;5093164;28;20042;-64
2023/05/17 06:31:21;;;;;;;15.90;8.57;;;;;;;;;;5092937;28;20043;-64
2023/05/17 06:33:48;;;;;;;18.50;8.63;;;;;;;;;;5074589;28;20044;-64
2023/05/17 06:36:16;;;;;;;23.40;8.30;;;;;;;;;;5092791;28;20117;-64
2023/05/17 06:38:46;;;;;;;15.88;8.52;;;;;;;;;;5092972;28;20040;-64
2023/05/17 06:41:13;;;;;;;15.23;8.30;;;;;;;;;;5092761;28;20036;-64
2023/05/17 06:43:40;;;;;;;15.27;9.13;;;;;;;;;;5092903;28;20036;-64
2023/05/17 06:46:08;;;;;;;14.93;9.20;;;;;;;;;;5092822;28;20455;-63
2023/05/17 06:48:35;;;;;;;20.92;9.02;;;;;;;;;;5092723;28;20051;-63
2023/05/17 06:51:03;;;;;;;14.20;8.43;;;;;;;;;;5092572;28;20050;-63
2023/05/17 06:53:31;;;;;;;19.02;9.02;;;;;;;;;;5092690;28;20389;-63
2023/05/17 06:55:58;;;;;;;16.33;8.38;;;;;;;;;;5092633;28;20068;-63
2023/05/17 06:58:26;;;;;;;16.02;8.82;;;;;;;;;;5092669;28;20040;-63
2023/05/17 07:00:53;;;;;;;13.48;8.10;;;;;;;;;;5092601;28;20040;-62
2023/05/17 07:03:21;;;;;;;15.07;8.23;;;;;;;;;;5092519;28;20474;-63
2023/05/17 07:05:48;;;;;;;15.93;8.30;;;;;;;;;;5092613;28;20036;-63
2023/05/17 07:08:16;;;;;;;14.93;8.23;;;;;;;;;;5092619;28;20047;-64
2023/05/17 07:10:43;;;;;;;16.65;7.90;;;;;;;;;;5092583;28;20047;-64
2023/05/17 07:13:11;;;;;;;16.25;8.38;;;;;;;;;;5092247;28;20139;-63
2023/05/17 07:15:38;;;;;;;14.90;8.55;;;;;;;;;;5092390;28;20044;-62
2023/05/17 07:18:06;;;;;;;17.25;8.40;;;;;;;;;;5092615;28;20044;-62
2023/05/17 07:20:34;;;;;;;14.35;8.30;;;;;;;;;;5092439;28;20042;-63
2023/05/17 07:23:01;;;;;;;14.02;8.25;;;;;;;;;;5092605;28;20430;-63
2023/05/17 07:25:28;;;;;;;16.65;8.05;;;;;;;;;;5092445;28;20040;-62
2023/05/17 07:27:56;;;;;;;23.73;8.57;;;;;;;;;;5092322;28;20489;-63
2023/05/17 07:30:24;;;;;;;13.75;8.80;;;;;;;;;;5092442;28;20044;-63
2023/05/17 07:32:51;;;;;;;24.55;9.50;;;;;;;;;;5092339;28;20032;-63
2023/05/17 07:35:19;;;;;;;14.00;7.78;;;;;;;;;;5092262;28;20371;-63
2023/05/17 07:37:48;;;;;;;18.35;8.65;;;;;;;;;;5092124;28;20059;-63
2023/05/17 07:40:15;;;;;;;23.75;9.25;;;;;;;;;;5092313;28;20047;-63
2023/05/17 07:42:43;;;;;;;18.17;8.35;;;;;;;;;;5092214;28;20040;-63
2023/05/17 07:45:11;;;;;;;17.63;8.40;;;;;;;;;;5075529;28;20405;-63
2023/05/17 07:47:38;;;;;;;15.07;7.95;;;;;;;;;;5096471;28;20044;-64
2023/05/17 07:50:06;;;;;;;17.42;8.98;;;;;;;;;;5096422;28;20036;-64
2023/05/17 07:52:33;;;;;;;16.67;8.18;;;;;;;;;;5078294;28;20375;-63
2023/05/17 07:55:02;;;;;;;16.58;8.38;;;;;;;;;;5078084;28;20389;-63
2023/05/17 07:57:30;;;;;;;18.75;8.55;;;;;;;;;;5096579;28;20416;-64
2023/05/17 07:59:57;;;;;;;14.10;8.02;;;;;;;;;;5096070;28;20042;-64
2023/05/17 08:02:25;;;;;;;14.15;8.45;;;;;;;;;;5077744;28;20414;-63
2023/05/17 08:04:52;;;;;;;16.17;9.35;;;;;;;;;;5095889;28;20478;-64
2023/05/17 08:07:20;;;;;;;12.63;8.55;;;;;;;;;;5096046;28;20369;-64
2023/05/17 08:09:47;;;;;;;12.60;8.65;;;;;;;;;;5095844;28;20067;-63
2023/05/17 08:12:15;;;;;;;25.80;9.30;;;;;;;;;;5095891;28;20079;-63
2023/05/17 08:14:42;;;;;;;16.42;8.05;;;;;;;;;;5077667;28;20035;-63
2023/05/17 08:17:10;;;;;;;14.98;8.30;;;;;;;;;;5095290;28;20512;-64
2023/05/17 08:19:37;;;;;;;15.48;7.97;;;;;;;;;;5095548;28;20047;-64
2023/05/17 08:22:05;;;;;;;13.45;8.52;;;;;;;;;;5095115;28;20040;-63
2023/05/17 08:24:33;;;;;;;13.05;8.18;;;;;;;;;;5095612;28;20043;-64
2023/05/17 08:27:01;;;;;;;14.27;8.05;;;;;;;;;;5095274;28;20070;-63
2023/05/17 08:29:28;;;;;;;14.05;9.10;;;;;;;;;;5094949;28;20036;-64
2023/05/17 08:31:56;;;;;;;17.30;10.15;;;;;;;;;;5094794;28;20112;-64
2023/05/17 08:34:23;;;;;;;13.27;8.90;;;;;;;;;;5077442;28;20032;-64
2023/05/17 08:36:52;;;;;;;13.35;8.07;;;;;;;;;;5095041;28;20052;-62
2023/05/17 08:39:20;;;;;;;13.68;7.30;;;;;;;;;;5095403;28;20086;-62
2023/05/17 08:41:48;;;;;;;13.13;7.22;;;;;;;;;;5095161;28;20034;-63
2023/05/17 08:44:16;;;;;;;13.77;8.02;;;;;;;;;;5095418;28;20123;-63
2023/05/17 08:46:43;;;;;;;15.60;8.07;;;;;;;;;;5095192;28;20389;-63
2023/05/17 08:49:13;;;;;;;12.20;7.50;;;;;;;;;;5095399;28;20528;-63
2023/05/17 08:51:41;;;;;;;12.88;7.25;;;;;;;;;;5095061;28;20036;-63
2023/05/17 08:54:09;;;;;;;20.95;7.63;;;;;;;;;;5095272;28;20416;-63
2023/05/17 08:56:38;;;;;;;11.95;7.38;;;;;;;;;;5094853;28;20036;-63
2023/05/17 08:59:09;;;;;;;14.63;8.02;;;;;;;;;;5094922;28;20040;-63
2023/05/17 09:01:38;;;;;;;14.95;7.78;;;;;;;;;;5094983;28;20074;-63
2023/05/17 09:04:08;;;;;;;18.00;7.78;;;;;;;;;;5076629;28;20044;-63
2023/05/17 09:06:36;;;;;;;13.85;6.70;;;;;;;;;;5094795;28;20054;-63
2023/05/17 09:09:07;;;;;;;16.23;9.40;;;;;;;;;;5094737;28;20205;-63
2023/05/17 09:11:35;;;;;;;16.88;8.70;;;;;;;;;;5094661;28;20046;-63
2023/05/17 09:14:04;;;;;;;13.93;7.38;;;;;;;;;;5094400;28;20040;-63
2023/05/17 09:16:36;;;;;;;13.98;7.63;;;;;;;;;;5094360;28;20093;-63
2023/05/17 09:19:04;;;;;;;16.40;7.30;;;;;;;;;;5076150;28;20545;-63
2023/05/17 09:21:35;;;;;;;15.00;7.22;;;;;;;;;;5094094;28;20059;-64
2023/05/17 09:24:03;;;;;;;13.13;7.32;;;;;;;;;;5094707;28;20386;-64
2023/05/17 09:26:39;;;;;;;17.40;8.30;;;;;;;;;;5076480;28;20040;-64
2023/05/17 09:29:13;;;;;;;13.30;7.75;;;;;;;;;;5094422;28;20036;-64
2023/05/17 09:31:42;;;;;;;29.90;9.13;;;;;;;;;;5094384;28;20036;-65
2023/05/17 09:34:10;;;;;;;23.42;8.68;;;;;;;;;;5094212;28;20051;-62
2023/05/17 09:36:38;;;;;;;26.10;8.05;;;;;;;;;;5093956;28;20741;-63
2023/05/17 09:39:09;;;;;;;22.85;7.93;;;;;;;;;;5094074;28;20051;-62
2023/05/17 09:41:48;;;;;;;15.15;8.63;;;;;;;;;;5094252;28;20040;-62
2023/05/17 09:44:16;;;;;;;16.88;8.73;;;;;;;;;;5094034;28;20436;-63
2023/05/17 09:46:44;;;;;;;22.10;10.00;;;;;;;;;;5094024;28;20064;-63
2023/05/17 09:49:12;;;;;;;14.43;9.98;;;;;;;;;;5093951;28;20101;-62
2023/05/17 09:51:41;;;;;;;17.88;11.20;;;;;;;;;;5093906;28;20036;-63
2023/05/17 09:54:09;;;;;;;16.55;10.13;;;;;;;;;;5093831;28;20051;-64
2023/05/17 09:56:37;;;;;;;17.80;10.10;;;;;;;;;;5093785;28;20044;-63
2023/05/17 09:59:10;;;;;;;19.65;11.20;;;;;;;;;;5093714;28;20097;-63
2023/05/17 10:01:40;;;;;;;19.48;10.55;;;;;;;;;;5093715;28;20101;-63
2023/05/17 10:04:10;;;;;;;19.02;10.80;;;;;;;;;;5093903;28;20112;-63
2023/05/17 10:06:43;;;;;;;18.73;10.73;;;;;;;;;;5093528;28;20402;-63
2023/05/17 10:09:18;;;;;;;14.40;9.70;;;;;;;;;;5076060;28;20089;-63
2023/05/17 10:11:46;;;;;;;17.70;10.35;;;;;;;;;;5075636;28;20043;-63
2023/05/17 10:14:21;;;;;;;17.02;10.02;;;;;;;;;;5093491;28;20040;-63
2023/05/17 10:16:50;;;;;;;17.85;10.60;;;;;;;;;;5093300;28;20043;-63
2023/05/17 10:19:19;;;;;;;19.27;9.77;;;;;;;;;;5093384;28;20040;-63
2023/05/17 10:21:48;;;;;;;16.38;9.52;;;;;;;;;;5093416;28;20044;-63
2023/05/17 10:24:15;;;;;;;17.58;9.60;;;;;;;;;;5093622;28;20507;-63
2023/05/17 10:26:43;;;;;;;27.27;10.43;;;;;;;;;;5093254;28;20067;-63
2023/05/17 10:29:11;;;;;;;35.92;10.52;;;;;;;;;;5093107;28;20044;-63
2023/05/17 10:31:40;;;;;;;17.02;9.50;;;;;;;;;;5092990;28;20052;-63
2023/05/17 10:34:10;;;;;;;21.77;9.40;;;;;;;;;;5093085;28;20060;-63
2023/05/17 10:36:38;;;;;;;12.77;8.13;;;;;;;;;;5092968;28;20063;-63
2023/05/17 10:39:06;;;;;;;23.38;8.20;;;;;;;;;;5093068;28;20060;-63
2023/05/17 10:41:35;;;;;;;13.98;7.43;;;;;;;;;;5092982;28;20043;-63
2023/05/17 10:44:03;;;;;;;13.95;6.32;;;;;;;;;;5092945;28;20044;-63
2023/05/17 10:46:31;;;;;;;13.57;7.30;;;;;;;;;;5092858;28;20075;-63
2023/05/17 10:49:00;;;;;;;11.18;6.45;;;;;;;;;;5092914;28;20389;-63
2023/05/17 10:51:35;;;;;;;16.00;7.25;;;;;;;;;;5092804;28;20410;-63
2023/05/17 10:54:02;;;;;;;;;;;;;;;;;;5093407;28;20036;-63
2023/05/17 10:56:30;;;;;;;10.93;5.72;;;;;;;;;;5092681;28;19920;-63
2023/05/17 10:59:37;;;;;;;19.23;6.00;;;;;;;;;;5092762;28;20077;-63
2023/05/17 11:02:04;;;;;;;13.50;5.82;;;;;;;;;;5030334;28;20418;-63
2023/05/17 11:04:42;;;;;;;13.20;5.65;;;;;;;;;;5014088;28;20497;-62
2023/05/17 11:07:16;;;;;;;13.38;5.80;;;;;;;;;;5065774;28;20097;-63
2023/05/17 11:09:44;;;;;;;8.20;5.68;;;;;;;;;;5074583;28;20397;-63
2023/05/17 11:12:15;;;;;;;8.93;5.38;;;;;;;;;;5092699;28;20036;-63
2023/05/17 11:14:45;;;;;;;10.98;5.50;;;;;;;;;;5074785;28;20083;-62
2023/05/17 11:17:13;;;;;;;12.63;5.88;;;;;;;;;;5092462;28;20036;-64
2023/05/17 11:19:56;;;;;;;11.05;6.32;;;;;;;;;;5074566;28;20416;-63
2023/05/17 11:22:25;;;;;;;12.13;6.13;;;;;;;;;;5096793;28;20448;-63
2023/05/17 11:24:53;;;;;;;12.07;6.20;;;;;;;;;;5096675;28;20497;-63
2023/05/17 11:27:26;;;;;;;13.45;6.30;;;;;;;;;;5096861;28;20044;-63
2023/05/17 11:29:54;;;;;;;12.98;5.28;;;;;;;;;;5096509;28;20036;-63
2023/05/17 11:32:31;;;;;;;9.50;5.65;;;;;;;;;;5096687;28;20089;-63
2023/05/17 11:35:02;;;;;;;12.13;6.10;;;;;;;;;;5096823;28;20044;-63
2023/05/17 11:37:30;;;;;;;10.57;6.20;;;;;;;;;;5096329;28;20095;-64
2023/05/17 11:40:02;;;;;;;10.50;6.25;;;;;;;;;;5096359;28;20124;-63
2023/05/17 11:42:30;;;;;;;9.73;6.00;;;;;;;;;;5096373;28;20066;-63
2023/05/17 11:44:57;;;;;;;11.88;5.63;;;;;;;;;;5078698;28;20043;-64
2023/05/17 11:47:26;;;;;;;8.35;5.13;;;;;;;;;;5096321;28;20076;-64
2023/05/17 11:49:55;;;;;;;7.55;5.38;;;;;;;;;;5078241;28;20485;-63
2023/05/17 11:52:23;;;;;;;9.20;5.40;;;;;;;;;;5096494;28;20074;-64
2023/05/17 11:54:51;;;;;;;11.82;5.13;;;;;;;;;;5096340;28;20058;-64
2023/05/17 11:57:20;;;;;;;9.68;5.43;;;;;;;;;;5096069;28;20075;-64
2023/05/17 11:59:47;;;;;;;8.63;4.80;;;;;;;;;;5078048;28;20097;-64
2023/05/17 12:02:31;;;;;;;8.13;4.90;;;;;;;;;;5096143;28;20382;-64
2023/05/17 12:04:58;;;;;;;9.57;5.38;;;;;;;;;;5095811;28;20059;-64
2023/05/17 12:07:27;;;;;;;9.07;5.05;;;;;;;;;;5095984;28;20546;-63
2023/05/17 12:09:54;;;;;;;10.65;6.20;;;;;;;;;;5095811;28;20520;-63
2023/05/17 12:12:22;;;;;;;10.30;6.20;;;;;;;;;;5095710;28;20040;-64
2023/05/17 12:14:50;;;;;;;12.60;6.72;;;;;;;;;;5095821;28;20526;-63
2023/05/17 12:17:27;;;;;;;10.80;6.10;;;;;;;;;;5095592;28;20048;-63
2023/05/17 12:19:55;;;;;;;14.02;7.15;;;;;;;;;;5095658;28;20072;-63
2023/05/17 12:22:23;;;;;;;12.38;6.70;;;;;;;;;;5095601;28;20489;-62
2023/05/17 12:24:50;;;;;;;10.90;6.60;;;;;;;;;;5095749;28;20055;-62
2023/05/17 12:27:25;;;;;;;11.25;6.03;;;;;;;;;;5095556;28;20044;-63
2023/05/17 12:29:53;;;;;;;9.18;5.53;;;;;;;;;;5077570;28;20444;-62
2023/05/17 12:32:20;;;;;;;13.07;6.65;;;;;;;;;;5095144;28;20047;-62
2023/05/17 12:34:48;;;;;;;8.52;4.28;;;;;;;;;;5095509;28;20040;-63
2023/05/17 12:37:15;;;;;;;8.75;4.40;;;;;;;;;;5095115;28;20049;-63
2023/05/17 12:39:43;;;;;;;8.93;4.85;;;;;;;;;;5095355;28;20111;-63
2023/05/17 12:42:11;;;;;;;9.98;5.32;;;;;;;;;;5095214;28;20051;-63
2023/05/17 12:44:38;;;;;;;10.45;5.18;;;;;;;;;;5095449;28;20044;-63
2023/05/17 12:47:06;;;;;;;8.25;4.30;;;;;;;;;;5095142;28;20079;-63
2023/05/17 12:49:37;;;;;;;6.60;4.32;;;;;;;;;;5095159;28;20036;-63
2023/05/17 12:52:05;;;;;;;6.63;4.65;;;;;;;;;;5095193;28;20063;-63
2023/05/17 12:54:33;;;;;;;11.65;5.13;;;;;;;;;;5094927;28;20036;-63
2023/05/17 12:57:10;;;;;;;8.98;5.50;;;;;;;;;;5095290;28;20036;-63
2023/05/17 12:59:49;;;;;;;7.00;4.50;;;;;;;;;;5095047;28;20115;-63
2023/05/17 13:02:16;;;;;;;8.02;4.72;;;;;;;;;;5095125;28;20408;-63
2023/05/17 13:04:45;;;;;;;12.32;5.93;;;;;;;;;;5094759;28;20036;-62
2023/05/17 13:07:20;;;;;;;13.95;6.55;;;;;;;;;;5095061;28;20040;-63
2023/05/17 13:09:48;;;;;;;13.15;6.32;;;;;;;;;;5094583;28;20444;-63
2023/05/17 13:12:19;;;;;;;8.43;5.30;;;;;;;;;;5094988;28;20067;-62
2023/05/17 13:14:48;;;;;;;9.98;6.25;;;;;;;;;;5094606;28;20040;-62
2023/05/17 13:17:23;;;;;;;9.45;5.40;;;;;;;;;;5076549;28;20044;-63
2023/05/17 13:19:51;;;;;;;8.55;5.88;;;;;;;;;;5094550;28;20036;-62
2023/05/17 13:22:18;;;;;;;8.68;6.07;;;;;;;;;;5094484;28;20044;-62
2023/05/17 13:24:46;;;;;;;11.63;6.60;;;;;;;;;;5076380;28;20408;-63
2023/05/17 13:27:13;;;;;;;12.60;7.30;;;;;;;;;;5076727;28;20048;-63
2023/05/17 13:29:42;;;;;;;13.57;6.45;;;;;;;;;;5094246;28;20039;-63
2023/05/17 13:32:11;;;;;;;11.55;6.72;;;;;;;;;;5073294;28;20044;-63
2023/05/17 13:34:39;;;;;;;10.57;6.05;;;;;;;;;;5093118;28;20040;-64
2023/05/17 13:37:07;;;;;;;12.32;6.20;;;;;;;;;;5092694;28;20147;-64
2023/05/17 13:39:38;;;;;;;11.80;5.45;;;;;;;;;;5092968;28;20246;-64
2023/05/17 13:42:06;;;;;;;16.20;6.00;;;;;;;;;;5092946;28;20043;-64
2023/05/17 13:44:33;;;;;;;8.05;5.63;;;;;;;;;;5092393;28;20032;-63
2023/05/17 13:47:01;;;;;;;12.35;6.13;;;;;;;;;;5093535;28;20040;-63
2023/05/17 13:49:28;;;;;;;10.90;6.32;;;;;;;;;;5093256;28;20040;-64
2023/05/17 13:51:56;;;;;;;9.20;6.47;;;;;;;;;;5075344;28;20032;-63
2023/05/17 13:54:24;;;;;;;9.43;5.63;;;;;;;;;;5061201;28;20040;-63
2023/05/17 13:56:52;;;;;;;12.52;6.57;;;;;;;;;;5092989;28;20044;-63
2023/05/17 13:59:19;;;;;;;10.50;6.13;;;;;;;;;;5093296;28;20501;-63
2023/05/17 14:01:47;;;;;;;10.38;5.82;;;;;;;;;;5093483;28;20397;-63
2023/05/17 14:04:15;;;;;;;8.00;4.45;;;;;;;;;;5086851;28;20036;-63
2023/05/17 14:06:42;;;;;;;10.95;4.38;;;;;;;;;;5056543;28;20044;-63
2023/05/17 14:09:12;;;;;;;6.25;3.85;;;;;;;;;;5092983;28;20040;-63
2023/05/17 14:11:39;;;;;;;8.00;4.10;;;;;;;;;;5093167;28;20481;-64
2023/05/17 14:14:07;;;;;;;9.40;4.43;;;;;;;;;;5093096;28;20074;-63
2023/05/17 14:16:34;;;;;;;7.47;4.57;;;;;;;;;;5078904;28;20068;-64
2023/05/17 14:19:02;;;;;;;7.72;4.82;;;;;;;;;;5093420;28;20059;-63
2023/05/17 14:21:31;;;;;;;7.72;4.47;;;;;;;;;;5093088;28;20040;-63
2023/05/17 14:23:59;;;;;;;7.95;4.57;;;;;;;;;;5093094;28;20537;-64
2023/05/17 14:26:26;;;;;;;12.13;5.03;;;;;;;;;;5092769;28;20361;-64
2023/05/17 14:28:54;;;;;;;12.38;4.80;;;;;;;;;;5092910;28;20401;-62
2023/05/17 14:31:21;;;;;;;9.25;5.22;;;;;;;;;;5074484;28;20421;-62
2023/05/17 14:33:49;;;;;;;12.52;5.03;;;;;;;;;;5092732;28;20048;-62
2023/05/17 14:36:17;;;;;;;11.20;5.20;;;;;;;;;;5092371;28;20044;-62
2023/05/17 14:38:44;;;;;;;13.27;5.65;;;;;;;;;;5092814;28;20081;-62